Meath Environmental Platform

Observations for Trim Patrick St

Time AQI Temp °C Hum % Pres Pa CO μg/m³ H₂S μg/m³ NO μg/m³ NO₂ μg/m³ O₃ μg/m³ SO₂ μg/m³ PM1 μg/m³ PM2.5 μg/m³ PM10 μg/m³
Saturday 1 August 2026
11:33 1 27.8 36 69,029 0 0 1.12 2.97 26.82 9.01 2 8.09 8.9
11:32 1 27.7 36 69,035 0 0 1.14 7.79 70.2 9.59 2 7.3 8.03
11:31 1 27.6 35 69,014 0 0 1.25 10.49 48.75 7.22 2.86 8.98 9.87
11:30 1 27.5 36 69,021 0 0 1.29 9.48 73.44 9.17 3.71 9.71 10.68
11:28 1 27.4 35 69,027 0 0 1.3 5.4 70.48 7.37 2 8.13 8.95
11:27 1 27.3 36 69,035 0 0 1.34 2.4 58.83 8.32 2.86 8.12 8.93
11:23 1 26.8 37 69,004 0 0 1.54 5.87 70.37 8.74 2 8.02 8.82
11:22 1 26.6 38 68,977 0 0 1.54 9.93 71.19 7.34 2.86 8.74 9.61
11:21 1 26.4 34 68,971 0 0 2.12 0.59 46 6.57 2.86 9.04 9.94
11:20 1 26.4 35 68,961 0 0 2.04 8.32 74.02 7.89 2 8.17 8.99
11:19 1 26.3 36 68,924 0 0 1.92 2.26 54.76 7.27 2 8.1 8.91
11:18 1 26.2 37 68,935 0 0 1.84 0.31 60.54 7.99 2.86 8.79 9.67
11:17 1 26.1 38 68,922 0 0 1.81 4.54 71.76 7.31 2 7.15 7.87
11:16 1 26 39 68,934 0 0 1.79 3.7 64.29 6.67 2 7.13 7.85
11:15 1 25.9 36 68,945 0 0 1.99 3.12 58.15 7.08 3.71 10.44 11.48
11:14 1 25.8 38 68,965 0 0 1.94 2.63 69.57 7.04 2.86 8.75 9.63
11:13 1 25.8 38 68,965 0 0 1.9 2.03 57.57 6.9 2 7.18 7.9
11:12 1 25.7 41 68,961 0 0 1.78 1.24 68.11 7.5 2 7.78 8.55
11:09 1 25.4 39 68,959 0 0 1.98 0 34.19 6.58 2.86 8.7 9.57
11:07 1 25.2 41 68,916 0 0 1.93 0 59.03 7.6 2.86 9.34 10.27